sensor_id;sensor_type;location;lat;lon;timestamp;P1;durP1;ratioP1;P2;durP2;ratioP2
4023;SDS011;2026;51.002;13.668;2022-08-30T00:02:54;8.03;;;6.10;;
4023;SDS011;2026;51.002;13.668;2022-08-30T00:07:58;8.80;;;6.40;;
4023;SDS011;2026;51.002;13.668;2022-08-30T00:13:03;7.43;;;5.70;;
4023;SDS011;2026;51.002;13.668;2022-08-30T00:18:07;11.70;;;6.10;;
4023;SDS011;2026;51.002;13.668;2022-08-30T00:23:10;8.43;;;6.00;;
4023;SDS011;2026;51.002;13.668;2022-08-30T00:28:15;11.90;;;6.03;;
4023;SDS011;2026;51.002;13.668;2022-08-30T00:33:19;8.83;;;6.50;;
4023;SDS011;2026;51.002;13.668;2022-08-30T00:38:22;9.87;;;5.37;;
4023;SDS011;2026;51.002;13.668;2022-08-30T00:43:28;9.10;;;6.13;;
4023;SDS011;2026;51.002;13.668;2022-08-30T00:48:37;7.47;;;5.27;;
4023;SDS011;2026;51.002;13.668;2022-08-30T00:53:47;9.87;;;6.17;;
4023;SDS011;2026;51.002;13.668;2022-08-30T00:58:57;12.10;;;5.53;;
4023;SDS011;2026;51.002;13.668;2022-08-30T01:04:02;6.10;;;5.07;;
4023;SDS011;2026;51.002;13.668;2022-08-30T01:09:07;6.83;;;4.90;;
4023;SDS011;2026;51.002;13.668;2022-08-30T01:14:12;5.37;;;4.87;;
4023;SDS011;2026;51.002;13.668;2022-08-30T01:19:20;7.83;;;5.73;;
4023;SDS011;2026;51.002;13.668;2022-08-30T01:24:37;7.63;;;5.60;;
4023;SDS011;2026;51.002;13.668;2022-08-30T01:29:40;7.53;;;5.20;;
4023;SDS011;2026;51.002;13.668;2022-08-30T01:34:45;7.67;;;5.50;;
4023;SDS011;2026;51.002;13.668;2022-08-30T01:39:50;7.80;;;5.63;;
4023;SDS011;2026;51.002;13.668;2022-08-30T01:44:53;6.93;;;5.20;;
4023;SDS011;2026;51.002;13.668;2022-08-30T01:49:56;11.30;;;6.10;;
4023;SDS011;2026;51.002;13.668;2022-08-30T01:55:01;10.13;;;5.93;;
4023;SDS011;2026;51.002;13.668;2022-08-30T02:00:05;12.77;;;6.30;;
4023;SDS011;2026;51.002;13.668;2022-08-30T02:05:12;6.70;;;5.30;;
4023;SDS011;2026;51.002;13.668;2022-08-30T02:10:17;12.10;;;5.73;;
4023;SDS011;2026;51.002;13.668;2022-08-30T02:15:21;7.90;;;5.10;;
4023;SDS011;2026;51.002;13.668;2022-08-30T02:20:24;9.60;;;5.77;;
4023;SDS011;2026;51.002;13.668;2022-08-30T02:25:28;10.43;;;6.60;;
4023;SDS011;2026;51.002;13.668;2022-08-30T02:30:31;7.40;;;5.37;;
4023;SDS011;2026;51.002;13.668;2022-08-30T02:35:35;7.80;;;5.80;;
4023;SDS011;2026;51.002;13.668;2022-08-30T02:40:39;9.97;;;5.70;;
4023;SDS011;2026;51.002;13.668;2022-08-30T02:45:43;8.00;;;5.57;;
4023;SDS011;2026;51.002;13.668;2022-08-30T02:50:46;6.43;;;5.40;;
4023;SDS011;2026;51.002;13.668;2022-08-30T02:55:52;10.07;;;5.93;;
4023;SDS011;2026;51.002;13.668;2022-08-30T03:00:58;7.70;;;5.23;;
4023;SDS011;2026;51.002;13.668;2022-08-30T03:06:02;7.53;;;5.20;;
4023;SDS011;2026;51.002;13.668;2022-08-30T03:11:06;11.03;;;5.90;;
4023;SDS011;2026;51.002;13.668;2022-08-30T03:16:11;7.37;;;5.43;;
4023;SDS011;2026;51.002;13.668;2022-08-30T03:21:14;8.03;;;6.10;;
4023;SDS011;2026;51.002;13.668;2022-08-30T03:26:19;9.77;;;5.60;;
4023;SDS011;2026;51.002;13.668;2022-08-30T03:31:22;7.83;;;5.13;;
4023;SDS011;2026;51.002;13.668;2022-08-30T03:36:25;10.13;;;6.17;;
4023;SDS011;2026;51.002;13.668;2022-08-30T03:41:30;9.90;;;6.10;;
4023;SDS011;2026;51.002;13.668;2022-08-30T03:46:33;10.57;;;6.63;;
4023;SDS011;2026;51.002;13.668;2022-08-30T03:51:38;9.17;;;6.40;;
4023;SDS011;2026;51.002;13.668;2022-08-30T03:56:42;9.40;;;6.60;;
4023;SDS011;2026;51.002;13.668;2022-08-30T04:01:45;7.90;;;5.70;;
4023;SDS011;2026;51.002;13.668;2022-08-30T04:06:48;10.43;;;5.77;;
4023;SDS011;2026;51.002;13.668;2022-08-30T04:11:53;10.03;;;6.20;;
4023;SDS011;2026;51.002;13.668;2022-08-30T04:16:56;14.63;;;6.30;;
4023;SDS011;2026;51.002;13.668;2022-08-30T04:21:59;8.50;;;6.17;;
4023;SDS011;2026;51.002;13.668;2022-08-30T04:27:04;6.70;;;5.73;;
4023;SDS011;2026;51.002;13.668;2022-08-30T04:32:07;8.73;;;5.67;;
4023;SDS011;2026;51.002;13.668;2022-08-30T04:37:10;9.47;;;6.67;;
4023;SDS011;2026;51.002;13.668;2022-08-30T04:42:15;14.20;;;7.60;;
4023;SDS011;2026;51.002;13.668;2022-08-30T04:47:19;15.67;;;7.10;;
4023;SDS011;2026;51.002;13.668;2022-08-30T04:52:22;8.00;;;6.20;;
4023;SDS011;2026;51.002;13.668;2022-08-30T04:57:26;11.23;;;6.73;;
4023;SDS011;2026;51.002;13.668;2022-08-30T05:02:30;10.70;;;7.07;;
4023;SDS011;2026;51.002;13.668;2022-08-30T05:07:33;8.70;;;6.73;;
4023;SDS011;2026;51.002;13.668;2022-08-30T05:12:38;10.90;;;7.60;;
4023;SDS011;2026;51.002;13.668;2022-08-30T05:17:42;11.33;;;7.67;;
4023;SDS011;2026;51.002;13.668;2022-08-30T05:22:46;13.30;;;7.50;;
4023;SDS011;2026;51.002;13.668;2022-08-30T05:27:55;8.33;;;6.60;;
4023;SDS011;2026;51.002;13.668;2022-08-30T05:32:59;9.27;;;7.40;;
4023;SDS011;2026;51.002;13.668;2022-08-30T05:38:02;10.70;;;7.33;;
4023;SDS011;2026;51.002;13.668;2022-08-30T05:43:08;10.50;;;8.10;;
4023;SDS011;2026;51.002;13.668;2022-08-30T05:48:12;9.10;;;7.20;;
4023;SDS011;2026;51.002;13.668;2022-08-30T05:53:15;8.60;;;6.17;;
4023;SDS011;2026;51.002;13.668;2022-08-30T05:58:19;8.47;;;7.57;;
4023;SDS011;2026;51.002;13.668;2022-08-30T06:03:22;12.97;;;7.80;;
4023;SDS011;2026;51.002;13.668;2022-08-30T06:08:27;12.07;;;7.30;;
4023;SDS011;2026;51.002;13.668;2022-08-30T06:13:31;9.90;;;7.10;;
4023;SDS011;2026;51.002;13.668;2022-08-30T06:18:34;11.10;;;7.10;;
4023;SDS011;2026;51.002;13.668;2022-08-30T06:23:37;9.50;;;6.50;;
4023;SDS011;2026;51.002;13.668;2022-08-30T06:28:42;10.13;;;8.00;;
4023;SDS011;2026;51.002;13.668;2022-08-30T06:33:46;9.27;;;6.73;;
4023;SDS011;2026;51.002;13.668;2022-08-30T06:38:49;14.13;;;6.30;;
4023;SDS011;2026;51.002;13.668;2022-08-30T06:43:55;8.90;;;6.87;;
4023;SDS011;2026;51.002;13.668;2022-08-30T06:48:59;10.37;;;6.73;;
4023;SDS011;2026;51.002;13.668;2022-08-30T06:54:07;7.87;;;6.10;;
4023;SDS011;2026;51.002;13.668;2022-08-30T06:59:13;7.40;;;6.37;;
4023;SDS011;2026;51.002;13.668;2022-08-30T07:04:16;6.97;;;6.23;;
4023;SDS011;2026;51.002;13.668;2022-08-30T07:09:19;9.63;;;5.63;;
4023;SDS011;2026;51.002;13.668;2022-08-30T07:14:25;9.67;;;6.40;;
4023;SDS011;2026;51.002;13.668;2022-08-30T07:19:28;11.43;;;6.80;;
4023;SDS011;2026;51.002;13.668;2022-08-30T07:24:31;9.17;;;6.37;;
4023;SDS011;2026;51.002;13.668;2022-08-30T07:29:35;10.57;;;6.90;;
4023;SDS011;2026;51.002;13.668;2022-08-30T07:34:38;7.60;;;6.13;;
4023;SDS011;2026;51.002;13.668;2022-08-30T07:39:42;10.37;;;5.93;;
4023;SDS011;2026;51.002;13.668;2022-08-30T07:44:50;11.30;;;5.80;;
4023;SDS011;2026;51.002;13.668;2022-08-30T07:49:57;10.33;;;5.30;;
4023;SDS011;2026;51.002;13.668;2022-08-30T07:55:01;11.77;;;6.10;;
4023;SDS011;2026;51.002;13.668;2022-08-30T08:00:06;9.20;;;5.10;;
4023;SDS011;2026;51.002;13.668;2022-08-30T08:05:13;8.57;;;5.07;;
4023;SDS011;2026;51.002;13.668;2022-08-30T08:10:19;5.83;;;5.10;;
4023;SDS011;2026;51.002;13.668;2022-08-30T08:15:24;7.43;;;5.53;;
4023;SDS011;2026;51.002;13.668;2022-08-30T08:20:28;5.97;;;4.60;;
4023;SDS011;2026;51.002;13.668;2022-08-30T08:25:31;5.60;;;5.00;;
4023;SDS011;2026;51.002;13.668;2022-08-30T08:30:37;7.70;;;5.23;;
4023;SDS011;2026;51.002;13.668;2022-08-30T08:35:42;7.70;;;5.27;;
4023;SDS011;2026;51.002;13.668;2022-08-30T08:40:48;6.20;;;4.80;;
4023;SDS011;2026;51.002;13.668;2022-08-30T08:46:03;5.80;;;5.10;;
4023;SDS011;2026;51.002;13.668;2022-08-30T08:51:13;7.70;;;4.97;;
4023;SDS011;2026;51.002;13.668;2022-08-30T08:56:35;12.32;;;4.90;;
4023;SDS011;2026;51.002;13.668;2022-08-30T09:01:41;7.10;;;4.63;;
4023;SDS011;2026;51.002;13.668;2022-08-30T09:06:46;10.27;;;5.00;;
4023;SDS011;2026;51.002;13.668;2022-08-30T09:11:54;8.23;;;4.80;;
4023;SDS011;2026;51.002;13.668;2022-08-30T09:16:59;6.63;;;4.40;;
4023;SDS011;2026;51.002;13.668;2022-08-30T09:22:11;5.10;;;3.80;;
4023;SDS011;2026;51.002;13.668;2022-08-30T09:27:20;4.75;;;4.25;;
4023;SDS011;2026;51.002;13.668;2022-08-30T09:32:30;5.53;;;4.20;;
4023;SDS011;2026;51.002;13.668;2022-08-30T09:37:36;8.23;;;3.72;;
4023;SDS011;2026;51.002;13.668;2022-08-30T09:42:56;8.00;;;4.20;;
4023;SDS011;2026;51.002;13.668;2022-08-30T09:53:29;5.07;;;4.03;;
4023;SDS011;2026;51.002;13.668;2022-08-30T09:58:40;4.53;;;4.13;;
4023;SDS011;2026;51.002;13.668;2022-08-30T10:04:00;5.23;;;3.53;;
4023;SDS011;2026;51.002;13.668;2022-08-30T10:09:13;3.60;;;3.20;;
4023;SDS011;2026;51.002;13.668;2022-08-30T10:14:31;6.30;;;3.58;;
4023;SDS011;2026;51.002;13.668;2022-08-30T10:19:55;6.75;;;4.05;;
4023;SDS011;2026;51.002;13.668;2022-08-30T10:25:06;9.45;;;5.45;;
4023;SDS011;2026;51.002;13.668;2022-08-30T10:30:16;6.22;;;4.57;;
4023;SDS011;2026;51.002;13.668;2022-08-30T10:35:22;5.20;;;4.70;;
4023;SDS011;2026;51.002;13.668;2022-08-30T10:40:29;6.87;;;4.90;;
4023;SDS011;2026;51.002;13.668;2022-08-30T10:45:54;6.00;;;4.80;;
4023;SDS011;2026;51.002;13.668;2022-08-30T10:51:03;6.40;;;5.50;;
4023;SDS011;2026;51.002;13.668;2022-08-30T10:56:13;7.20;;;5.07;;
4023;SDS011;2026;51.002;13.668;2022-08-30T11:01:24;6.28;;;5.38;;
4023;SDS011;2026;51.002;13.668;2022-08-30T11:06:50;7.83;;;5.77;;
4023;SDS011;2026;51.002;13.668;2022-08-30T11:17:34;7.88;;;4.38;;
4023;SDS011;2026;51.002;13.668;2022-08-30T11:23:04;5.95;;;4.30;;
4023;SDS011;2026;51.002;13.668;2022-08-30T11:34:07;4.95;;;3.95;;
4023;SDS011;2026;51.002;13.668;2022-08-30T11:39:33;5.45;;;4.18;;
4023;SDS011;2026;51.002;13.668;2022-08-30T11:50:39;4.53;;;3.95;;
4023;SDS011;2026;51.002;13.668;2022-08-30T11:55:57;5.20;;;4.00;;
4023;SDS011;2026;51.002;13.668;2022-08-30T12:01:13;5.30;;;3.45;;
4023;SDS011;2026;51.002;13.668;2022-08-30T12:06:47;4.13;;;3.50;;
4023;SDS011;2026;51.002;13.668;2022-08-30T12:11:55;6.30;;;3.80;;
4023;SDS011;2026;51.002;13.668;2022-08-30T12:17:00;5.77;;;3.73;;
4023;SDS011;2026;51.002;13.668;2022-08-30T12:22:22;4.80;;;4.30;;
4023;SDS011;2026;51.002;13.668;2022-08-30T12:27:27;4.87;;;4.03;;
4023;SDS011;2026;51.002;13.668;2022-08-30T12:32:36;3.83;;;3.43;;
4023;SDS011;2026;51.002;13.668;2022-08-30T12:37:53;5.67;;;3.90;;
4023;SDS011;2026;51.002;13.668;2022-08-30T12:43:04;5.33;;;4.17;;
4023;SDS011;2026;51.002;13.668;2022-08-30T12:48:17;6.15;;;3.97;;
4023;SDS011;2026;51.002;13.668;2022-08-30T12:53:24;5.63;;;4.28;;
4023;SDS011;2026;51.002;13.668;2022-08-30T12:58:39;4.43;;;4.03;;
4023;SDS011;2026;51.002;13.668;2022-08-30T13:03:58;5.20;;;4.53;;
4023;SDS011;2026;51.002;13.668;2022-08-30T13:09:03;5.03;;;4.50;;
4023;SDS011;2026;51.002;13.668;2022-08-30T13:14:27;5.97;;;4.90;;
4023;SDS011;2026;51.002;13.668;2022-08-30T13:19:34;5.63;;;5.03;;
4023;SDS011;2026;51.002;13.668;2022-08-30T13:24:38;6.37;;;4.60;;
4023;SDS011;2026;51.002;13.668;2022-08-30T13:29:43;5.27;;;4.77;;
4023;SDS011;2026;51.002;13.668;2022-08-30T13:34:46;8.13;;;4.83;;
4023;SDS011;2026;51.002;13.668;2022-08-30T13:39:49;7.10;;;4.77;;
4023;SDS011;2026;51.002;13.668;2022-08-30T13:44:54;6.63;;;4.60;;
4023;SDS011;2026;51.002;13.668;2022-08-30T13:49:57;8.60;;;5.43;;
4023;SDS011;2026;51.002;13.668;2022-08-30T13:55:01;5.00;;;4.37;;
4023;SDS011;2026;51.002;13.668;2022-08-30T14:00:08;4.87;;;4.43;;
4023;SDS011;2026;51.002;13.668;2022-08-30T14:05:16;5.30;;;4.47;;
4023;SDS011;2026;51.002;13.668;2022-08-30T14:10:40;5.60;;;4.50;;
4023;SDS011;2026;51.002;13.668;2022-08-30T14:15:50;6.23;;;4.43;;
4023;SDS011;2026;51.002;13.668;2022-08-30T14:21:13;6.60;;;5.90;;
4023;SDS011;2026;51.002;13.668;2022-08-30T14:26:22;4.33;;;3.57;;
4023;SDS011;2026;51.002;13.668;2022-08-30T14:31:35;5.60;;;4.37;;
4023;SDS011;2026;51.002;13.668;2022-08-30T14:36:40;4.90;;;4.40;;
4023;SDS011;2026;51.002;13.668;2022-08-30T14:41:46;7.60;;;4.17;;
4023;SDS011;2026;51.002;13.668;2022-08-30T14:46:53;5.13;;;4.07;;
4023;SDS011;2026;51.002;13.668;2022-08-30T14:51:57;4.27;;;3.87;;
4023;SDS011;2026;51.002;13.668;2022-08-30T14:57:00;5.37;;;4.83;;
4023;SDS011;2026;51.002;13.668;2022-08-30T15:02:05;4.50;;;3.80;;
4023;SDS011;2026;51.002;13.668;2022-08-30T15:07:09;5.60;;;4.27;;
4023;SDS011;2026;51.002;13.668;2022-08-30T15:12:14;4.10;;;3.70;;
4023;SDS011;2026;51.002;13.668;2022-08-30T15:17:18;5.43;;;4.27;;
4023;SDS011;2026;51.002;13.668;2022-08-30T15:22:22;7.13;;;3.80;;
4023;SDS011;2026;51.002;13.668;2022-08-30T15:27:25;7.10;;;4.20;;
4023;SDS011;2026;51.002;13.668;2022-08-30T15:32:30;6.70;;;4.00;;
4023;SDS011;2026;51.002;13.668;2022-08-30T15:37:33;6.80;;;3.90;;
4023;SDS011;2026;51.002;13.668;2022-08-30T15:42:37;4.50;;;3.67;;
4023;SDS011;2026;51.002;13.668;2022-08-30T15:47:44;4.13;;;3.53;;
4023;SDS011;2026;51.002;13.668;2022-08-30T15:52:49;4.50;;;3.90;;
4023;SDS011;2026;51.002;13.668;2022-08-30T15:57:52;4.57;;;3.90;;
4023;SDS011;2026;51.002;13.668;2022-08-30T16:02:56;4.97;;;3.37;;
4023;SDS011;2026;51.002;13.668;2022-08-30T16:07:59;4.43;;;4.03;;
4023;SDS011;2026;51.002;13.668;2022-08-30T16:13:02;4.37;;;3.37;;
4023;SDS011;2026;51.002;13.668;2022-08-30T16:18:08;4.00;;;3.60;;
4023;SDS011;2026;51.002;13.668;2022-08-30T16:23:13;5.53;;;4.30;;
4023;SDS011;2026;51.002;13.668;2022-08-30T16:28:17;5.37;;;4.20;;
4023;SDS011;2026;51.002;13.668;2022-08-30T16:33:23;6.50;;;3.90;;
4023;SDS011;2026;51.002;13.668;2022-08-30T16:38:26;4.30;;;3.90;;
4023;SDS011;2026;51.002;13.668;2022-08-30T16:43:30;4.93;;;4.10;;
4023;SDS011;2026;51.002;13.668;2022-08-30T16:48:35;4.80;;;3.90;;
4023;SDS011;2026;51.002;13.668;2022-08-30T16:53:41;4.50;;;3.93;;
4023;SDS011;2026;51.002;13.668;2022-08-30T16:58:45;4.47;;;3.83;;
4023;SDS011;2026;51.002;13.668;2022-08-30T17:03:51;4.60;;;4.20;;
4023;SDS011;2026;51.002;13.668;2022-08-30T17:08:54;4.47;;;4.00;;
4023;SDS011;2026;51.002;13.668;2022-08-30T17:13:57;4.37;;;3.97;;
4023;SDS011;2026;51.002;13.668;2022-08-30T17:19:05;4.53;;;4.10;;
4023;SDS011;2026;51.002;13.668;2022-08-30T17:24:09;6.40;;;4.47;;
4023;SDS011;2026;51.002;13.668;2022-08-30T17:29:12;4.10;;;3.63;;
4023;SDS011;2026;51.002;13.668;2022-08-30T17:34:17;6.03;;;3.80;;
4023;SDS011;2026;51.002;13.668;2022-08-30T17:39:22;4.80;;;4.10;;
4023;SDS011;2026;51.002;13.668;2022-08-30T17:44:26;7.77;;;4.60;;
4023;SDS011;2026;51.002;13.668;2022-08-30T17:49:31;4.60;;;4.00;;
4023;SDS011;2026;51.002;13.668;2022-08-30T17:54:34;4.70;;;4.00;;
4023;SDS011;2026;51.002;13.668;2022-08-30T17:59:38;4.70;;;3.83;;
4023;SDS011;2026;51.002;13.668;2022-08-30T18:04:43;4.87;;;4.23;;
4023;SDS011;2026;51.002;13.668;2022-08-30T18:09:47;5.03;;;4.53;;
4023;SDS011;2026;51.002;13.668;2022-08-30T18:14:50;4.40;;;4.00;;
4023;SDS011;2026;51.002;13.668;2022-08-30T18:19:55;7.10;;;4.63;;
4023;SDS011;2026;51.002;13.668;2022-08-30T18:25:03;5.50;;;4.20;;
4023;SDS011;2026;51.002;13.668;2022-08-30T18:30:07;4.97;;;4.57;;
4023;SDS011;2026;51.002;13.668;2022-08-30T18:35:13;4.53;;;3.70;;
4023;SDS011;2026;51.002;13.668;2022-08-30T18:40:16;6.37;;;4.80;;
4023;SDS011;2026;51.002;13.668;2022-08-30T18:45:20;6.80;;;4.40;;
4023;SDS011;2026;51.002;13.668;2022-08-30T18:50:25;4.10;;;3.70;;
4023;SDS011;2026;51.002;13.668;2022-08-30T18:55:29;5.20;;;4.20;;
4023;SDS011;2026;51.002;13.668;2022-08-30T19:00:33;4.57;;;4.00;;
4023;SDS011;2026;51.002;13.668;2022-08-30T19:05:38;4.10;;;3.70;;
4023;SDS011;2026;51.002;13.668;2022-08-30T19:10:42;4.47;;;4.03;;
4023;SDS011;2026;51.002;13.668;2022-08-30T19:15:45;4.60;;;4.20;;
4023;SDS011;2026;51.002;13.668;2022-08-30T19:20:49;4.80;;;3.87;;
4023;SDS011;2026;51.002;13.668;2022-08-30T19:25:53;4.73;;;4.23;;
4023;SDS011;2026;51.002;13.668;2022-08-30T19:30:58;5.57;;;4.93;;
4023;SDS011;2026;51.002;13.668;2022-08-30T19:36:04;5.43;;;4.40;;
4023;SDS011;2026;51.002;13.668;2022-08-30T19:41:08;5.70;;;4.57;;
4023;SDS011;2026;51.002;13.668;2022-08-30T19:46:13;4.77;;;4.20;;
4023;SDS011;2026;51.002;13.668;2022-08-30T19:51:18;5.47;;;4.70;;
4023;SDS011;2026;51.002;13.668;2022-08-30T19:56:22;6.27;;;4.23;;
4023;SDS011;2026;51.002;13.668;2022-08-30T20:01:25;5.00;;;4.50;;
4023;SDS011;2026;51.002;13.668;2022-08-30T20:06:35;5.23;;;4.47;;
4023;SDS011;2026;51.002;13.668;2022-08-30T20:11:38;5.70;;;5.10;;
4023;SDS011;2026;51.002;13.668;2022-08-30T20:16:43;8.37;;;4.93;;
4023;SDS011;2026;51.002;13.668;2022-08-30T20:21:49;5.57;;;5.03;;
4023;SDS011;2026;51.002;13.668;2022-08-30T20:26:53;5.23;;;4.73;;
4023;SDS011;2026;51.002;13.668;2022-08-30T20:31:57;5.37;;;4.87;;
4023;SDS011;2026;51.002;13.668;2022-08-30T20:37:03;7.60;;;5.30;;
4023;SDS011;2026;51.002;13.668;2022-08-30T20:42:08;5.90;;;4.43;;
4023;SDS011;2026;51.002;13.668;2022-08-30T20:47:11;5.17;;;4.60;;
4023;SDS011;2026;51.002;13.668;2022-08-30T20:52:16;5.80;;;4.80;;
4023;SDS011;2026;51.002;13.668;2022-08-30T20:57:19;5.50;;;4.63;;
4023;SDS011;2026;51.002;13.668;2022-08-30T21:02:25;6.00;;;4.47;;
4023;SDS011;2026;51.002;13.668;2022-08-30T21:07:29;6.33;;;5.43;;
4023;SDS011;2026;51.002;13.668;2022-08-30T21:12:34;11.37;;;5.23;;
4023;SDS011;2026;51.002;13.668;2022-08-30T21:17:37;6.93;;;5.27;;
4023;SDS011;2026;51.002;13.668;2022-08-30T21:22:43;8.13;;;5.30;;
4023;SDS011;2026;51.002;13.668;2022-08-30T21:27:46;5.97;;;5.07;;
4023;SDS011;2026;51.002;13.668;2022-08-30T21:32:49;6.73;;;5.30;;
4023;SDS011;2026;51.002;13.668;2022-08-30T21:37:54;6.10;;;4.87;;
4023;SDS011;2026;51.002;13.668;2022-08-30T21:42:57;7.47;;;4.80;;
4023;SDS011;2026;51.002;13.668;2022-08-30T21:48:06;5.20;;;4.20;;
4023;SDS011;2026;51.002;13.668;2022-08-30T21:53:11;5.50;;;4.70;;
4023;SDS011;2026;51.002;13.668;2022-08-30T21:58:17;5.57;;;4.70;;
4023;SDS011;2026;51.002;13.668;2022-08-30T22:03:20;8.33;;;5.00;;
4023;SDS011;2026;51.002;13.668;2022-08-30T22:08:24;7.33;;;5.50;;
4023;SDS011;2026;51.002;13.668;2022-08-30T22:13:27;6.67;;;5.00;;
4023;SDS011;2026;51.002;13.668;2022-08-30T22:18:30;6.10;;;5.10;;
4023;SDS011;2026;51.002;13.668;2022-08-30T22:23:35;8.90;;;4.90;;
4023;SDS011;2026;51.002;13.668;2022-08-30T22:28:38;7.47;;;5.00;;
4023;SDS011;2026;51.002;13.668;2022-08-30T22:33:42;6.10;;;4.40;;
4023;SDS011;2026;51.002;13.668;2022-08-30T22:38:47;5.83;;;4.90;;
4023;SDS011;2026;51.002;13.668;2022-08-30T22:43:53;5.20;;;4.57;;
4023;SDS011;2026;51.002;13.668;2022-08-30T22:48:57;5.00;;;4.30;;
4023;SDS011;2026;51.002;13.668;2022-08-30T22:54:02;8.13;;;3.73;;
4023;SDS011;2026;51.002;13.668;2022-08-30T22:59:05;4.57;;;3.67;;
4023;SDS011;2026;51.002;13.668;2022-08-30T23:04:09;5.10;;;4.30;;
4023;SDS011;2026;51.002;13.668;2022-08-30T23:09:14;7.80;;;4.00;;
4023;SDS011;2026;51.002;13.668;2022-08-30T23:14:17;4.03;;;3.63;;
4023;SDS011;2026;51.002;13.668;2022-08-30T23:19:20;4.43;;;4.03;;
4023;SDS011;2026;51.002;13.668;2022-08-30T23:24:25;6.27;;;4.20;;
4023;SDS011;2026;51.002;13.668;2022-08-30T23:29:49;7.93;;;4.23;;
4023;SDS011;2026;51.002;13.668;2022-08-30T23:35:10;5.50;;;4.50;;
4023;SDS011;2026;51.002;13.668;2022-08-30T23:40:33;5.47;;;4.20;;
4023;SDS011;2026;51.002;13.668;2022-08-30T23:45:54;5.90;;;4.63;;
4023;SDS011;2026;51.002;13.668;2022-08-30T23:51:20;5.40;;;4.53;;
4023;SDS011;2026;51.002;13.668;2022-08-30T23:56:41;5.80;;;4.80;;
